Time;durP1;ratioP1;P1;durP2;ratioP2;P2;SDS_P1;SDS_P2;PMS_P1;PMS_P2;Temp;Humidity;BMP_temperature;BMP_pressure;BME280_temperature;BME280_humidity;BME280_pressure;Samples;Min_cycle;Max_cycle;Signal;HPM_P1;HPM_P2
2023/04/03 00:02:07;;;;;;;1999.90;999.90;;;;;;;8.97;99.43;97813.00;5117668;27;20451;-84
2023/04/03 00:04:32;;;;;;;1999.90;999.90;;;;;;;8.80;100.00;97813.44;5136621;27;20051;-85
2023/04/03 00:06:58;;;;;;;1999.90;999.90;;;;;;;8.75;100.00;97812.69;5138262;27;20486;-85
2023/04/03 00:09:23;;;;;;;1999.90;999.90;;;;;;;8.76;100.00;97806.97;5133313;27;20129;-86
2023/04/03 00:11:48;;;;;;;1999.90;999.90;;;;;;;8.69;100.00;97813.84;5115395;28;20396;-83
2023/04/03 00:14:14;;;;;;;1999.90;999.90;;;;;;;8.75;100.00;97807.22;5115435;28;20113;-84
2023/04/03 00:16:39;;;;;;;1999.90;999.90;;;;;;;8.76;100.00;97808.88;5099877;28;20023;-87
2023/04/03 00:19:05;;;;;;;1999.90;999.90;;;;;;;8.71;100.00;97806.19;5118616;28;20023;-88
2023/04/03 00:21:31;;;;;;;1999.90;999.90;;;;;;;8.70;100.00;97796.38;5120376;28;20022;-84
2023/04/03 00:23:56;;;;;;;1999.90;999.90;;;;;;;8.62;100.00;97814.16;5117723;28;20118;-82
2023/04/03 00:26:22;;;;;;;1999.90;999.90;;;;;;;8.56;100.00;97807.13;5118100;28;20120;-85
2023/04/03 00:28:47;;;;;;;1999.90;999.90;;;;;;;8.50;100.00;97811.00;5118293;28;20490;-87
2023/04/03 00:31:15;;;;;;;1999.90;999.90;;;;;;;8.58;100.00;97813.91;5116341;28;20120;-85
2023/04/03 00:33:40;;;;;;;1999.90;999.90;;;;;;;8.63;100.00;97798.63;5117030;28;20132;-83
2023/04/03 00:36:09;;;;;;;1999.90;999.90;;;;;;;8.69;100.00;97811.91;5116444;28;20507;-82
2023/04/03 00:38:34;;;;;;;1999.90;999.90;;;;;;;8.56;100.00;97810.69;5117237;28;20484;-81
2023/04/03 00:41:00;;;;;;;1999.90;999.90;;;;;;;8.51;100.00;97805.28;5115694;28;20023;-82
2023/04/03 00:43:29;;;;;;;1999.90;999.90;;;;;;;8.43;100.00;97811.31;5117375;28;20088;-85
2023/04/03 00:45:56;;;;;;;1999.90;999.90;;;;;;;8.43;100.00;97802.31;5117420;28;20030;-84
2023/04/03 00:48:32;;;;;;;1999.90;999.90;;;;;;;8.59;100.00;97821.00;5115963;28;20031;-81
2023/04/03 00:50:59;;;;;;;1999.90;999.90;;;;;;;8.41;100.00;97810.81;5098374;28;20036;-84
2023/04/03 00:53:30;;;;;;;1999.90;999.90;;;;;;;8.43;100.00;97814.03;5117718;28;20053;-84
2023/04/03 00:55:57;;;;;;;1999.90;999.90;;;;;;;8.41;100.00;97802.63;5117569;28;20032;-86
2023/04/03 00:58:33;;;;;;;1999.90;999.90;;;;;;;8.40;100.00;97806.44;5117333;28;20030;-82
2023/04/03 01:01:03;;;;;;;1999.90;999.90;;;;;;;8.36;100.00;97810.84;5118393;28;20030;-84
2023/04/03 01:03:31;;;;;;;1999.90;999.90;;;;;;;8.37;98.23;97812.47;5116930;28;20031;-86
2023/04/03 01:05:56;;;;;;;1999.90;999.90;;;;;;;8.36;98.79;97810.03;5120619;28;20038;-85
2023/04/03 01:08:22;;;;;;;1999.90;999.90;;;;;;;8.41;98.48;97808.06;5119578;28;20040;-90
2023/04/03 01:10:47;;;;;;;1999.90;999.90;;;;;;;8.29;97.02;97806.81;5122109;28;20495;-87
2023/04/03 01:13:41;;;;;;;1999.90;999.90;;;;;;;8.11;97.59;97824.63;5123934;28;20045;-87
2023/04/03 01:16:08;;;;;;;1999.90;999.90;;;;;;;8.01;97.23;97819.25;5113947;28;20036;-84
2023/04/03 01:18:36;;;;;;;1999.90;999.90;;;;;;;8.03;96.30;97819.75;5118934;28;20479;-85
2023/04/03 01:21:23;;;;;;;1999.90;999.90;;;;;;;7.99;95.96;97822.22;5117871;28;20032;-82
2023/04/03 01:23:48;;;;;;;1999.90;999.90;;;;;;;8.07;95.45;97820.84;5123447;27;20502;-85
2023/04/03 01:26:14;;;;;;;1999.90;999.90;;;;;;;7.89;94.14;97816.06;5134205;27;20083;-79
2023/04/03 01:28:39;;;;;;;1999.90;999.90;;;;;;;7.86;94.18;97811.16;5121808;27;20027;-80
2023/04/03 01:31:18;;;;;;;1999.90;999.90;;;;;;;7.87;93.92;97818.22;5093737;28;20480;-76
2023/04/03 01:33:43;;;;;;;1999.90;999.90;;;;;;;7.77;93.23;97824.53;5093839;28;20043;-76
2023/04/03 01:36:15;;;;;;;1999.90;999.90;;;;;;;7.77;93.24;97832.69;5112336;28;20106;-76
2023/04/03 01:38:41;;;;;;;1999.90;999.90;;;;;;;7.72;93.40;97821.03;5111429;28;20016;-77
2023/04/03 01:41:06;;;;;;;1999.90;999.90;;;;;;;7.81;92.92;97835.69;5126215;27;20048;-77
2023/04/03 01:43:31;;;;;;;1999.90;999.90;;;;;;;7.68;92.08;97830.84;5132089;27;20035;-78
2023/04/03 01:45:57;;;;;;;1999.90;999.90;;;;;;;7.66;92.15;97830.31;5132070;27;20031;-77
2023/04/03 01:48:22;;;;;;;1999.90;999.90;;;;;;;7.57;91.92;97830.09;5131880;27;20056;-79
2023/04/03 01:50:47;;;;;;;1999.90;999.90;;;;;;;7.60;91.12;97836.88;5113358;27;20038;-74
2023/04/03 01:53:13;;;;;;;1999.90;999.90;;;;;;;7.44;91.52;97836.13;5131784;27;20053;-76
2023/04/03 01:55:39;;;;;;;1999.90;999.90;;;;;;;7.46;91.40;97831.22;5131434;27;20031;-75
2023/04/03 01:58:04;;;;;;;1999.90;999.90;;;;;;;7.37;89.75;97836.41;5131748;27;20051;-75
2023/04/03 02:00:30;;;;;;;1999.90;999.90;;;;;;;7.41;90.10;97834.78;5131705;27;20476;-76
2023/04/03 02:02:56;;;;;;;1999.90;999.90;;;;;;;7.38;91.37;97843.50;5131869;27;20483;-75
2023/04/03 02:05:22;;;;;;;1999.90;999.90;;;;;;;7.35;90.54;97840.53;5132264;27;20034;-76
2023/04/03 02:07:47;;;;;;;1999.90;999.90;;;;;;;7.33;89.82;97840.00;5130533;27;20043;-79
2023/04/03 02:10:13;;;;;;;1999.90;999.90;;;;;;;7.28;90.03;97831.81;5128872;27;20045;-82
2023/04/03 02:12:38;;;;;;;1999.90;999.90;;;;;;;7.23;90.23;97829.13;5131981;27;20501;-76
2023/04/03 02:15:04;;;;;;;1999.90;999.90;;;;;;;7.22;90.63;97838.38;5131869;27;20027;-77
2023/04/03 02:17:30;;;;;;;1999.90;999.90;;;;;;;7.19;90.33;97839.75;5152068;27;20023;-78
2023/04/03 02:19:55;;;;;;;1999.90;999.90;;;;;;;7.12;90.02;97839.22;5152820;27;20106;-79
2023/04/03 02:22:21;;;;;;;1999.90;999.90;;;;;;;7.09;89.88;97830.78;5153899;27;20030;-82
2023/04/03 02:24:46;;;;;;;1999.90;999.90;;;;;;;7.13;89.44;97831.88;5154571;27;20056;-78
2023/04/03 02:27:12;;;;;;;1999.90;999.90;;;;;;;7.17;88.31;97835.69;5153739;27;20025;-79
2023/04/03 02:29:38;;;;;;;1999.90;999.90;;;;;;;7.03;87.03;97834.63;5152846;27;20034;-76
2023/04/03 02:32:03;;;;;;;1999.90;999.90;;;;;;;7.02;86.76;97849.31;5152945;27;20022;-77
2023/04/03 02:34:29;;;;;;;1999.90;999.90;;;;;;;6.95;86.68;97827.84;5153326;27;20088;-79
2023/04/03 02:36:54;;;;;;;1999.90;999.90;;;;;;;6.83;87.37;97840.91;5155829;27;20065;-77
2023/04/03 02:39:20;;;;;;;1999.90;999.90;;;;;;;6.81;86.61;97837.66;5154934;27;20126;-78
2023/04/03 02:41:45;;;;;;;1999.90;999.90;;;;;;;6.70;86.48;97841.47;5133961;27;20023;-76
2023/04/03 02:44:11;;;;;;;1999.90;999.90;;;;;;;6.70;87.52;97836.03;5152204;27;20546;-78
2023/04/03 02:46:37;;;;;;;1999.90;999.90;;;;;;;6.47;88.29;97838.22;5134455;27;20378;-78
2023/04/03 02:49:03;;;;;;;1999.90;999.90;;;;;;;6.63;88.40;97839.03;5152260;27;20027;-79
2023/04/03 02:51:28;;;;;;;1999.90;999.90;;;;;;;6.49;88.03;97846.09;5152340;27;20467;-76
2023/04/03 02:53:53;;;;;;;1999.90;999.90;;;;;;;6.37;87.87;97849.06;5152216;27;20034;-76
2023/04/03 02:56:20;;;;;;;1999.90;999.90;;;;;;;6.24;89.21;97849.59;5152635;27;20144;-76
2023/04/03 02:58:45;;;;;;;1999.90;999.90;;;;;;;6.19;90.53;97857.75;5152513;27;20027;-81
2023/04/03 03:01:11;;;;;;;1999.90;999.90;;;;;;;6.19;89.98;97846.91;5152728;27;20034;-79
2023/04/03 03:03:37;;;;;;;1999.90;999.90;;;;;;;6.17;89.67;97846.34;5152783;27;20095;-79
2023/04/03 03:06:14;;;;;;;1999.90;999.90;;;;;;;5.97;91.59;97849.03;5153225;27;20102;-78
2023/04/03 03:08:40;;;;;;;1999.90;999.90;;;;;;;5.83;93.44;97859.53;5152520;27;20087;-80
2023/04/03 03:11:06;;;;;;;1999.90;999.90;;;;;;;5.65;94.32;97851.06;5152093;27;20420;-79
2023/04/03 03:13:32;;;;;;;1999.90;999.90;;;;;;;5.37;95.11;97861.28;5153083;27;20032;-76
2023/04/03 03:15:57;;;;;;;1999.90;999.90;;;;;;;5.35;95.08;97847.19;5153605;27;20027;-76
2023/04/03 03:18:23;;;;;;;1999.90;999.90;;;;;;;5.25;95.60;97849.84;5152325;27;20030;-79
2023/04/03 03:20:52;;;;;;;1999.90;999.90;;;;;;;5.27;95.75;97854.97;5141041;27;20031;-78
2023/04/03 03:23:18;;;;;;;1999.90;999.90;;;;;;;5.22;94.83;97863.09;5161199;27;20070;-76
2023/04/03 03:25:44;;;;;;;1999.90;999.90;;;;;;;5.21;94.91;97856.84;5158450;27;20094;-77
2023/04/03 03:28:09;;;;;;;1999.90;999.90;;;;;;;5.01;96.01;97851.31;5156407;27;20027;-77
2023/04/03 03:30:35;;;;;;;1999.90;999.90;;;;;;;4.91;97.18;97864.81;5155760;27;20045;-77
2023/04/03 03:33:00;;;;;;;1999.90;999.90;;;;;;;4.85;97.61;97866.66;5156403;27;20068;-79
2023/04/03 03:35:26;;;;;;;1999.90;999.90;;;;;;;4.76;98.05;97867.44;5156255;27;20027;-77
2023/04/03 03:37:51;;;;;;;1999.90;999.90;;;;;;;4.68;99.13;97854.34;5155723;27;20360;-81
2023/04/03 03:40:17;;;;;;;1999.90;999.90;;;;;;;4.64;99.27;97861.34;5155603;27;20023;-82
2023/04/03 03:42:42;;;;;;;1999.90;999.90;;;;;;;4.57;99.53;97856.19;5155890;27;20022;-79
2023/04/03 03:45:08;;;;;;;1999.90;999.90;;;;;;;4.53;100.00;97857.75;5155950;27;20037;-84
2023/04/03 03:47:33;;;;;;;1999.90;999.90;;;;;;;4.44;100.00;97855.78;5156105;27;20018;-76
2023/04/03 03:49:59;;;;;;;1999.90;999.90;;;;;;;4.40;100.00;97865.50;5156378;27;20091;-77
2023/04/03 03:52:25;;;;;;;1999.90;999.90;;;;;;;4.37;100.00;97860.59;5156118;27;20049;-82
2023/04/03 03:54:50;;;;;;;1999.90;999.90;;;;;;;4.29;100.00;97859.19;5156369;27;20054;-79
2023/04/03 03:57:16;;;;;;;1999.90;999.90;;;;;;;4.28;100.00;97866.50;5157233;27;20022;-80
2023/04/03 03:59:41;;;;;;;1999.90;999.90;;;;;;;4.23;100.00;97855.59;5155584;27;20063;-76
2023/04/03 04:02:07;;;;;;;1999.90;999.90;;;;;;;4.23;100.00;97861.03;5157111;27;20363;-77
2023/04/03 04:04:33;;;;;;;1999.90;999.90;;;;;;;4.24;100.00;97865.38;5159320;27;20521;-77
2023/04/03 04:07:00;;;;;;;1999.90;999.90;;;;;;;4.24;100.00;97861.84;5155945;27;20046;-80
2023/04/03 04:09:25;;;;;;;1999.90;999.90;;;;;;;4.18;100.00;97857.47;5156289;27;20071;-76
2023/04/03 04:11:51;;;;;;;1999.90;999.90;;;;;;;4.18;100.00;97852.88;5156914;27;20085;-77
2023/04/03 04:14:16;;;;;;;1999.90;999.90;;;;;;;4.17;100.00;97867.47;5156286;27;20031;-77
2023/04/03 04:16:42;;;;;;;1999.90;999.90;;;;;;;4.20;99.82;97861.53;5156098;27;20497;-75
2023/04/03 04:19:07;;;;;;;1999.90;999.90;;;;;;;4.22;99.28;97875.66;5155345;27;20018;-74
2023/04/03 04:21:32;;;;;;;1999.90;999.90;;;;;;;4.18;98.33;97866.41;5154882;27;20026;-78
2023/04/03 04:23:58;;;;;;;1999.90;999.90;;;;;;;4.16;97.99;97882.09;5154803;27;20486;-77
2023/04/03 04:26:24;;;;;;;1999.90;999.90;;;;;;;4.04;97.63;97856.25;5154685;27;20029;-76
2023/04/03 04:28:49;;;;;;;1999.90;999.90;;;;;;;4.18;97.80;97874.53;5154435;27;20428;-76
2023/04/03 04:31:15;;;;;;;1999.90;999.90;;;;;;;4.21;97.69;97867.78;5143366;27;20130;-76
2023/04/03 04:33:40;;;;;;;1999.90;999.90;;;;;;;4.21;97.24;97876.72;5132110;27;20475;-77
2023/04/03 04:36:06;;;;;;;1999.90;999.90;;;;;;;4.19;97.76;97878.88;5117303;27;20096;-78
2023/04/03 04:38:31;;;;;;;1999.90;999.90;;;;;;;4.12;97.87;97880.13;5117918;28;20023;-74
2023/04/03 04:40:57;;;;;;;1999.90;999.90;;;;;;;4.03;97.77;97884.38;5128843;27;20503;-80
2023/04/03 04:43:22;;;;;;;1999.90;999.90;;;;;;;4.10;98.18;97880.38;5133607;27;20027;-78
2023/04/03 04:45:47;;;;;;;1999.90;999.90;;;;;;;4.09;97.62;97886.88;5134256;27;20491;-76
2023/04/03 04:48:13;;;;;;;1999.90;999.90;;;;;;;4.11;97.64;97878.50;5134053;27;20030;-82
2023/04/03 04:50:38;;;;;;;1999.90;999.90;;;;;;;4.06;97.63;97889.28;5136855;27;20094;-82
2023/04/03 04:53:04;;;;;;;1999.90;999.90;;;;;;;4.17;96.63;97888.28;5133297;27;20544;-79
2023/04/03 04:55:29;;;;;;;1999.90;999.90;;;;;;;4.04;96.23;97894.94;5133950;27;20031;-81
2023/04/03 04:57:55;;;;;;;1999.90;999.90;;;;;;;4.02;96.71;97894.38;5138890;27;20471;-84
2023/04/03 05:00:21;;;;;;;1999.90;999.90;;;;;;;4.06;95.72;97887.38;5134579;27;20049;-79
2023/04/03 05:02:46;;;;;;;1999.90;999.90;;;;;;;4.10;96.44;97907.44;5133534;27;20031;-74
2023/04/03 05:05:11;;;;;;;1999.90;999.90;;;;;;;4.14;95.88;97905.88;5132601;27;20065;-74
2023/04/03 05:07:37;;;;;;;1999.90;999.90;;;;;;;4.27;94.42;97916.28;5133617;27;20078;-80
2023/04/03 05:10:03;;;;;;;1999.90;999.90;;;;;;;4.31;93.28;97906.59;5133691;27;20071;-76
2023/04/03 05:12:29;;;;;;;1999.90;999.90;;;;;;;4.28;91.98;97904.41;5137963;27;20790;-84
2023/04/03 05:14:54;;;;;;;1999.90;999.90;;;;;;;4.37;92.09;97910.16;5143680;27;20031;-79
2023/04/03 05:17:20;;;;;;;1999.90;999.90;;;;;;;4.48;90.39;97916.50;5117374;27;20044;-80
2023/04/03 05:19:46;;;;;;;1999.90;999.90;;;;;;;4.36;90.62;97923.94;5132641;27;20072;-75
2023/04/03 05:22:11;;;;;;;1999.90;999.90;;;;;;;4.42;90.80;97921.03;5130892;27;20019;-76
2023/04/03 05:24:36;;;;;;;1999.90;999.90;;;;;;;4.56;89.77;97919.53;5130933;27;20372;-74
2023/04/03 05:27:02;;;;;;;1999.90;999.90;;;;;;;4.47;87.52;97898.59;5132222;27;20019;-75
2023/04/03 05:29:27;;;;;;;1999.90;999.90;;;;;;;4.57;87.56;97923.06;5134649;27;20023;-76
2023/04/03 05:31:53;;;;;;;1999.90;999.90;;;;;;;4.68;86.87;97927.47;5138550;27;20023;-76
2023/04/03 05:34:18;;;;;;;1999.90;999.90;;;;;;;4.67;85.76;97934.78;5136445;27;20587;-79
2023/04/03 05:36:46;;;;;;;1999.90;999.90;;;;;;;4.67;85.56;97931.25;5132170;27;20027;-76
2023/04/03 05:39:11;;;;;;;1999.90;999.90;;;;;;;4.79;84.45;97924.59;5131800;27;20033;-76
2023/04/03 05:41:36;;;;;;;1999.90;999.90;;;;;;;4.91;84.36;97934.44;5131992;27;20027;-75
2023/04/03 05:44:02;;;;;;;1999.90;999.90;;;;;;;4.89;83.51;97937.41;5132007;27;20027;-75
2023/04/03 05:46:27;;;;;;;1999.90;999.90;;;;;;;4.89;83.72;97940.13;5132375;27;20019;-79
2023/04/03 05:48:53;;;;;;;1999.90;999.90;;;;;;;4.96;82.17;97935.31;5113823;27;20437;-74
2023/04/03 05:51:30;;;;;;;1999.90;999.90;;;;;;;4.93;80.61;97935.81;5132394;27;20122;-74
2023/04/03 05:54:05;;;;;;;1999.90;999.90;;;;;;;5.10;79.90;97933.78;5131415;27;20092;-75
2023/04/03 05:56:31;;;;;;;;;;;;;;;5.24;79.49;97943.09;5114437;27;20034;-76
2023/04/03 05:58:56;;;;;;;;;;;;;;;5.58;77.14;97942.72;5133315;27;19911;-74
2023/04/03 06:01:21;;;;;;;1999.90;999.90;;;;;;;5.59;76.14;97938.94;5132619;27;19950;-76
2023/04/03 06:03:47;;;;;;;1999.90;999.90;;;;;;;5.78;75.43;97945.56;5132510;27;20501;-75
2023/04/03 06:06:14;;;;;;;1999.90;999.90;;;;;;;5.93;73.73;97951.06;5133439;27;20007;-75
2023/04/03 06:08:39;;;;;;;1999.90;999.90;;;;;;;6.42;71.40;97957.72;5132948;27;20491;-74
2023/04/03 06:11:05;;;;;;;1999.90;999.90;;;;;;;6.44;70.56;97952.88;5114603;27;20035;-74
2023/04/03 06:13:31;;;;;;;1999.90;999.90;;;;;;;6.29;70.80;97952.84;5133808;27;20051;-74
2023/04/03 06:15:57;;;;;;;1999.90;999.90;;;;;;;6.10;71.33;97956.31;5135258;27;20141;-75
2023/04/03 06:18:23;;;;;;;1999.90;999.90;;;;;;;5.91;71.98;97956.78;5132605;27;20019;-78
2023/04/03 06:20:48;;;;;;;1999.90;999.90;;;;;;;5.97;72.13;97952.19;5132087;27;20098;-77
2023/04/03 06:23:13;;;;;;;1999.90;999.90;;;;;;;5.89;72.41;97949.97;5131998;27;20029;-75
2023/04/03 06:25:39;;;;;;;1999.90;999.90;;;;;;;5.99;71.80;97955.44;5131737;27;20031;-76
2023/04/03 06:28:05;;;;;;;1999.90;999.90;;;;;;;6.14;71.29;97950.06;5131781;27;20524;-77
2023/04/03 06:30:30;;;;;;;1999.90;999.90;;;;;;;6.39;69.84;97962.91;5132230;27;20050;-76
2023/04/03 06:32:56;;;;;;;1999.90;999.90;;;;;;;6.62;69.15;97946.09;5132101;28;20491;-76
2023/04/03 06:35:23;;;;;;;1999.90;999.90;;;;;;;6.82;68.25;97957.00;5131637;28;20045;-77
2023/04/03 06:37:49;;;;;;;1999.90;999.90;;;;;;;7.03;66.84;97960.53;5134071;28;20019;-76
2023/04/03 06:40:20;;;;;;;1999.90;999.90;;;;;;;6.96;65.96;97955.34;5131580;28;20030;-76
2023/04/03 06:42:46;;;;;;;1999.90;999.90;;;;;;;6.90;67.54;97955.63;5132006;28;20059;-77
2023/04/03 06:45:12;;;;;;;1999.90;999.90;;;;;;;6.82;66.37;97959.72;5132097;28;20058;-76
2023/04/03 06:47:37;;;;;;;1999.90;999.90;;;;;;;7.14;66.11;97962.13;5131851;28;20070;-75
2023/04/03 06:50:03;;;;;;;1999.90;999.90;;;;;;;7.02;65.26;97956.16;5132064;28;20023;-76
2023/04/03 06:52:28;;;;;;;1999.90;999.90;;;;;;;7.18;65.72;97962.41;5131559;28;20019;-76
2023/04/03 06:54:56;;;;;;;1999.90;999.90;;;;;;;7.38;63.77;97954.22;5136166;27;20034;-77
2023/04/03 06:57:22;;;;;;;1999.90;999.90;;;;;;;7.48;63.71;97965.94;5139484;27;20026;-75
2023/04/03 06:59:47;;;;;;;1999.90;999.90;;;;;;;7.60;61.26;97970.25;5137062;27;20019;-75
2023/04/03 07:02:13;;;;;;;1999.90;999.90;;;;;;;7.69;59.06;97965.88;5135740;27;21238;-74
2023/04/03 07:04:38;;;;;;;1999.90;999.90;;;;;;;7.74;60.52;97969.38;5135528;27;20019;-75
2023/04/03 07:07:03;;;;;;;1999.90;999.90;;;;;;;8.28;58.83;97977.66;5136064;27;20064;-75
2023/04/03 07:09:29;;;;;;;1999.90;999.90;;;;;;;8.20;56.87;97971.94;5135902;27;20102;-76
2023/04/03 07:11:55;;;;;;;1999.90;999.90;;;;;;;8.05;56.36;97984.53;5136056;27;20047;-77
2023/04/03 07:14:20;;;;;;;1999.90;999.90;;;;;;;8.07;56.05;97978.81;5135953;27;20023;-75
2023/04/03 07:16:46;;;;;;;1999.90;999.90;;;;;;;8.20;54.42;97974.69;5135372;27;20035;-76
2023/04/03 07:19:12;;;;;;;1999.90;999.90;;;;;;;8.30;54.47;97983.63;5135012;27;20027;-76
2023/04/03 07:21:37;;;;;;;1999.90;999.90;;;;;;;8.39;53.79;97968.34;5135027;27;20020;-74
2023/04/03 07:24:02;;;;;;;1999.90;999.90;;;;;;;8.77;53.88;97979.56;5134901;27;20375;-74
2023/04/03 07:26:28;;;;;;;1999.90;999.90;;;;;;;9.25;51.36;97981.38;5134894;27;20055;-74
2023/04/03 07:28:53;;;;;;;1999.90;999.90;;;;;;;9.44;49.90;97984.22;5134976;27;20027;-76
2023/04/03 07:31:19;;;;;;;1999.90;999.90;;;;;;;9.12;50.84;97984.75;5135030;27;20035;-75
2023/04/03 07:33:45;;;;;;;1999.90;999.90;;;;;;;9.18;50.22;97975.41;5135083;27;20031;-76
2023/04/03 07:36:16;;;;;;;1999.90;999.90;;;;;;;9.54;49.51;97973.19;5116457;27;20518;-76
2023/04/03 07:38:41;;;;;;;1999.90;999.90;;;;;;;9.56;49.62;97960.06;5135186;27;20038;-76
2023/04/03 07:41:12;;;;;;;1999.90;999.90;;;;;;;9.57;48.36;97972.63;5137356;27;20024;-77
2023/04/03 07:43:37;;;;;;;1999.90;999.90;;;;;;;9.91;47.58;97961.59;5140158;27;20019;-77
2023/04/03 07:46:05;;;;;;;1999.90;999.90;;;;;;;9.92;46.85;97963.22;5135884;27;20072;-76
2023/04/03 07:48:30;;;;;;;1999.90;999.90;;;;;;;10.82;45.60;97971.38;5134678;27;20076;-76
2023/04/03 07:51:00;;;;;;;1999.90;999.90;;;;;;;10.79;44.44;97974.69;5134925;27;20467;-76
2023/04/03 07:53:26;;;;;;;1999.90;999.90;;;;;;;10.84;43.71;97980.91;5134991;27;20027;-76
2023/04/03 07:55:55;;;;;;;1999.90;999.90;;;;;;;11.68;42.74;97981.72;5134827;27;20125;-76
2023/04/03 07:58:20;;;;;;;1999.90;999.90;;;;;;;11.75;41.43;97955.56;5135106;27;20030;-75
2023/04/03 08:00:46;;;;;;;1999.90;999.90;;;;;;;12.64;40.09;97969.66;5134603;27;20027;-77
2023/04/03 08:03:12;;;;;;;1999.90;999.90;;;;;;;12.67;39.43;97977.28;5134545;27;20172;-76
2023/04/03 08:05:42;;;;;;;1999.90;999.90;;;;;;;13.25;38.85;97973.78;5133276;27;20459;-76
2023/04/03 08:08:13;;;;;;;1999.90;999.90;;;;;;;13.11;37.48;97970.25;5134464;27;20040;-74
2023/04/03 08:10:38;;;;;;;1999.90;999.90;;;;;;;14.50;35.70;97974.25;5134819;27;20046;-76
2023/04/03 08:13:04;;;;;;;1999.90;999.90;;;;;;;14.01;35.99;97977.25;5135090;27;20027;-76
2023/04/03 08:15:31;;;;;;;1999.90;999.90;;;;;;;13.63;36.17;97979.66;5134207;27;20027;-76
2023/04/03 08:17:57;;;;;;;1999.90;999.90;;;;;;;13.51;36.67;97971.16;5134620;27;20034;-75
2023/04/03 08:20:22;;;;;;;1999.90;999.90;;;;;;;13.62;36.84;97970.63;5134965;27;20023;-74
2023/04/03 08:22:48;;;;;;;1999.90;999.90;;;;;;;14.43;35.08;97973.91;5138659;27;20380;-76
2023/04/03 08:25:13;;;;;;;1999.90;999.90;;;;;;;14.29;34.65;97973.16;5136079;27;20028;-75
2023/04/03 08:27:39;;;;;;;1999.90;999.90;;;;;;;14.04;35.41;97980.19;5134160;27;20059;-76
2023/04/03 08:30:06;;;;;;;1999.90;999.90;;;;;;;14.28;35.95;97968.81;5133796;27;20110;-76
2023/04/03 08:32:33;;;;;;;1999.90;999.90;;;;;;;15.21;33.98;97969.28;5134063;27;20024;-76
2023/04/03 08:34:58;;;;;;;1999.90;999.90;;;;;;;14.79;34.45;97968.13;5133710;27;20034;-76
2023/04/03 08:37:24;;;;;;;1999.90;999.90;;;;;;;14.33;35.23;97975.00;5133678;27;20031;-74
2023/04/03 08:39:49;;;;;;;1999.90;999.90;;;;;;;14.59;34.58;97966.81;5133812;27;20063;-76
2023/04/03 08:42:34;;;;;;;1999.90;999.90;;;;;;;15.36;32.62;97963.28;5133567;27;20015;-75
2023/04/03 08:45:26;;;;;;;1999.90;999.90;;;;;;;14.08;34.79;97950.13;5134160;27;20502;-76
2023/04/03 08:48:07;;;;;;;1999.90;999.90;;;;;;;15.38;32.78;97964.56;5133760;27;20176;-74
2023/04/03 08:50:45;;;;;;;1999.90;999.90;;;;;;;15.93;31.76;97953.63;5133498;27;20087;-75
2023/04/03 08:53:16;;;;;;;1999.90;999.90;;;;;;;15.09;32.80;97978.22;5133690;27;20490;-74
2023/04/03 08:55:46;;;;;;;1999.90;999.90;;;;;;;14.37;34.26;97961.44;5133004;27;20023;-76
2023/04/03 08:58:18;;;;;;;1999.90;999.90;;;;;;;14.68;33.14;97991.59;5133439;27;20111;-75
2023/04/03 09:00:51;;;;;;;1999.90;999.90;;;;;;;13.73;33.58;97996.69;5134160;27;20035;-75
2023/04/03 09:03:19;;;;;;;1999.90;999.90;;;;;;;12.26;35.84;97965.53;5135085;27;20027;-79
2023/04/03 09:06:17;;;;;;;1999.90;999.90;;;;;;;14.72;33.65;97968.59;5135052;27;20473;-75
2023/04/03 09:08:45;;;;;;;1999.90;999.90;;;;;;;13.70;33.53;97958.84;5124863;27;20046;-74
2023/04/03 09:11:10;;;;;;;1999.90;999.90;;;;;;;13.85;33.86;97960.38;5133352;27;20031;-75
2023/04/03 09:13:59;;;;;;;1999.90;999.90;;;;;;;14.06;33.43;97955.94;5134599;27;20031;-76
2023/04/03 09:16:57;;;;;;;1999.90;999.90;;;;;;;14.76;32.92;97955.81;5135156;27;20493;-77
2023/04/03 09:19:31;;;;;;;1999.90;999.90;;;;;;;14.36;33.40;97943.28;5119106;27;20039;-74
2023/04/03 09:22:12;;;;;;;1999.90;999.90;;;;;;;15.39;31.92;97959.88;5135552;27;20115;-75
2023/04/03 09:24:38;;;;;;;1999.90;999.90;;;;;;;15.01;31.53;97974.31;5134705;27;20031;-76
2023/04/03 09:27:07;;;;;;;1999.90;999.90;;;;;;;14.07;33.17;97957.56;5133111;27;20444;-76
2023/04/03 09:29:39;;;;;;;1999.90;999.90;;;;;;;14.90;32.41;97947.41;5132917;27;20019;-77
2023/04/03 09:32:28;;;;;;;1999.90;999.90;;;;;;;15.12;31.56;97950.00;5132857;27;20023;-77
2023/04/03 09:34:58;;;;;;;1999.90;999.90;;;;;;;13.73;32.80;97949.97;5120155;27;20023;-78
2023/04/03 09:37:38;;;;;;;1999.90;999.90;;;;;;;14.22;32.11;97953.59;5123050;27;20023;-81
2023/04/03 09:40:05;;;;;;;1999.90;999.90;;;;;;;14.00;32.38;97940.72;5115079;27;20070;-75
2023/04/03 09:42:32;;;;;;;1999.90;999.90;;;;;;;14.13;32.10;97955.47;5111818;28;20739;-74
2023/04/03 09:45:05;;;;;;;1999.90;999.90;;;;;;;13.60;33.02;97939.06;5094066;28;20023;-75
2023/04/03 09:47:33;;;;;;;1999.90;999.90;;;;;;;13.56;33.57;97946.31;5113061;28;20027;-75
2023/04/03 09:50:14;;;;;;;1999.90;999.90;;;;;;;12.95;33.67;97950.53;5115575;28;20031;-77
2023/04/03 09:52:45;;;;;;;1999.90;999.90;;;;;;;13.48;34.18;97925.91;5113402;28;20031;-77
2023/04/03 09:55:20;;;;;;;1999.90;999.90;;;;;;;13.54;33.63;97949.38;5117459;28;20476;-77
2023/04/03 09:57:48;;;;;;;1999.90;999.90;;;;;;;14.00;32.33;97939.91;5114084;28;20361;-77
2023/04/03 10:00:53;;;;;;;1999.90;999.90;;;;;;;13.53;32.84;97936.78;5111390;28;20039;-77
2023/04/03 10:03:27;;;;;;;1999.90;999.90;;;;;;;13.54;33.79;97932.88;5090119;28;20392;-75
2023/04/03 10:05:54;;;;;;;1999.90;999.90;;;;;;;14.31;32.58;97935.16;5111888;28;20252;-76
2023/04/03 10:08:23;;;;;;;1999.90;999.90;;;;;;;13.31;33.13;97923.06;5111649;28;20050;-76
2023/04/03 10:11:16;;;;;;;1999.90;999.90;;;;;;;13.31;33.05;97932.09;5111575;28;20118;-75
2023/04/03 10:14:04;;;;;;;1999.90;999.90;;;;;;;14.54;32.63;97925.66;5111694;28;20418;-75
2023/04/03 10:16:38;;;;;;;1999.90;999.90;;;;;;;14.20;32.18;97928.31;5094037;28;20434;-76
2023/04/03 10:19:16;;;;;;;1999.90;999.90;;;;;;;15.17;30.93;97918.72;5111681;28;20404;-75
2023/04/03 10:21:50;;;;;;;1999.90;999.90;;;;;;;15.15;31.11;97921.00;5111538;28;20039;-75
2023/04/03 10:24:43;;;;;;;1999.90;999.90;;;;;;;15.90;30.83;97934.16;5111072;28;20030;-76
2023/04/03 10:27:16;;;;;;;1999.90;999.90;;;;;;;15.28;31.03;97931.03;5111188;28;20024;-75
2023/04/03 10:30:01;;;;;;;1999.90;999.90;;;;;;;15.16;29.89;97930.88;5110236;28;20594;-76
2023/04/03 10:32:36;;;;;;;1999.90;999.90;;;;;;;14.48;30.30;97908.50;5111122;28;20062;-76
2023/04/03 10:35:36;;;;;;;1999.90;999.90;;;;;;;13.61;31.13;97922.25;5111362;28;20035;-75
2023/04/03 10:38:08;;;;;;;1999.90;999.90;;;;;;;13.51;31.08;97929.94;5111018;28;20031;-75
2023/04/03 10:41:06;;;;;;;1999.90;999.90;;;;;;;14.25;31.15;97920.72;5110839;28;20028;-76
2023/04/03 10:43:48;;;;;;;1999.90;999.90;;;;;;;13.58;31.05;97920.16;5090699;28;20080;-76
2023/04/03 10:46:23;;;;;;;1999.90;999.90;;;;;;;14.27;31.22;97917.66;5110907;28;20027;-75
2023/04/03 10:49:16;;;;;;;1999.90;999.90;;;;;;;13.43;31.69;97920.56;5092578;28;20020;-76
2023/04/03 10:51:43;;;;;;;1999.90;999.90;;;;;;;13.74;31.85;97904.88;5110911;28;20020;-75
2023/04/03 10:54:24;;;;;;;1999.90;999.90;;;;;;;13.64;32.44;97888.63;5110805;28;20480;-74
2023/04/03 10:56:57;;;;;;;1999.90;999.90;;;;;;;13.07;33.84;97895.06;5111006;28;20492;-77
2023/04/03 10:59:31;;;;;;;1999.90;999.90;;;;;;;13.65;34.27;97889.47;5111839;28;20367;-75
2023/04/03 11:02:04;;;;;;;1999.90;999.90;;;;;;;12.72;34.73;97864.63;5111013;28;20396;-76
2023/04/03 11:04:35;;;;;;;1999.90;999.90;;;;;;;11.99;35.39;97897.81;5110874;28;20540;-75
2023/04/03 11:07:26;;;;;;;1999.90;999.90;;;;;;;11.61;35.58;97886.22;5092741;28;20024;-74